Fort Lauderdale, FL (33309)

9:29 PM EST on February 08, 2016 (GMT -0500)
Villas at Lakeview | | Change Station
CLOSE
Current Station
Personal Weather Station
Location: Fort Lauderdale, FL
Elevation: 23 ft
Nearby Weather Stations

Elev 23 ft 26.19 °N, 80.18 °W | Updated 9 minutes ago

Clear
Clear
60.4 °F
Feels Like 60.4 °F
N
7.3
Wind Variable Wind from ESE

Today
High -- | Low -- °F
--% Chance of Precip.
Yesterday
High -- | Low -- °F
Precip. -- in
Pressure 30.02 in
Visibility 10.0 miles
Clouds Clear
Dew Point 52 °F
Humidity 74%
Rainfall 0.00 in
Snow Depth Not available.
7:01 AM 6:08 PM
New Moon, 0% visible
METAR KFXE 090153Z 23009KT 10SM CLR 16/10 A3001 RMK AO2 SLP165 T01560100
Pressure 30.02 in
Visibility 10.0 miles
Clouds Clear
Dew Point 52 °F
Humidity 74%
Rainfall 0.00 in
Snow Depth Not available.
7:01 AM 6:08 PM
New Moon, 0% visible
METAR KFXE 090153Z 23009KT 10SM CLR 16/10 A3001 RMK AO2 SLP165 T01560100

10-Day Weather Forecast

Almanac

Astronomy

Feb. 08, 2016 Rise Set
Actual Time
Civil Twilight
Nautical Twilight
Astronomical Twilight
Moon
Length of Visible Light
Length of Day
Tomorrow will be .
, % of the Moon is Illuminated

Today's Extremes

State Highs State Lows

Community

WunderPhotos

Upload Photos

1,891,527 photos uploaded!

WunderBlog® & News

Nearby

Air Quality

  Air Quality AQ Index Pollutant
Not available.

Snow Depth

Station Depth Elevation

Earthquake Activity

City Distance Mag. Time & Date
Minimum magnitude displayed is 2.5.

Coastal Water Temperatures

Place Temperature

Stations

Nearby Weather Stations

Station Location Temp. Windchill Dew Point Humidity Wind Precip. Elev Updated Type
                   

Watches & Warnings

There are currently no watches in effect.